createdAt,value
2018-03-26T00:00:56.205Z,0.00
2018-03-26T00:01:56.230Z,0.00
2018-03-26T00:02:56.243Z,0.00
2018-03-26T00:03:56.271Z,0.00
2018-03-26T00:04:56.288Z,0.00
2018-03-26T00:05:56.270Z,0.00
2018-03-26T00:06:56.288Z,0.00
2018-03-26T00:07:56.316Z,0.00
2018-03-26T00:08:56.373Z,0.00
2018-03-26T00:09:56.345Z,0.00
2018-03-26T00:10:56.348Z,0.00
2018-03-26T00:11:56.374Z,0.00
2018-03-26T00:12:56.385Z,0.00
2018-03-26T00:13:56.388Z,0.00
2018-03-26T00:14:56.405Z,0.00
2018-03-26T00:15:56.457Z,0.00
2018-03-26T00:16:56.456Z,0.00
2018-03-26T00:17:56.450Z,0.00
2018-03-26T00:18:56.489Z,0.00
2018-03-26T00:19:56.478Z,0.00
2018-03-26T00:20:56.569Z,0.00
2018-03-26T00:21:56.504Z,0.00
2018-03-26T00:22:56.527Z,0.00
2018-03-26T00:23:56.558Z,0.00
2018-03-26T00:24:56.552Z,0.00
2018-03-26T00:25:56.578Z,0.00
2018-03-26T00:26:56.573Z,0.00
2018-03-26T00:27:56.597Z,0.00
2018-03-26T00:28:56.628Z,0.00
2018-03-26T00:29:56.657Z,0.00
2018-03-26T00:30:56.674Z,0.00
2018-03-26T00:31:56.655Z,0.00
2018-03-26T00:32:56.682Z,0.00
2018-03-26T00:33:56.694Z,0.00
2018-03-26T00:34:56.703Z,0.00
2018-03-26T00:35:56.709Z,0.00
2018-03-26T00:36:56.730Z,0.00
2018-03-26T00:37:56.750Z,0.00
2018-03-26T00:38:56.750Z,0.00
2018-03-26T00:39:56.767Z,0.00
2018-03-26T00:40:56.815Z,0.00
2018-03-26T00:41:56.803Z,0.00
2018-03-26T00:42:56.805Z,0.00
2018-03-26T00:43:56.824Z,0.00
2018-03-26T00:44:56.861Z,0.00
2018-03-26T00:45:56.872Z,0.00
2018-03-26T00:46:56.877Z,0.00
2018-03-26T00:47:56.891Z,0.00
2018-03-26T00:48:56.905Z,0.00
2018-03-26T00:49:56.923Z,0.00
2018-03-26T00:50:56.928Z,0.00
2018-03-26T00:51:57.006Z,0.00
2018-03-26T00:52:56.968Z,0.00
2018-03-26T00:53:56.975Z,0.00
2018-03-26T00:54:56.997Z,0.00
2018-03-26T00:55:57.006Z,0.00
2018-03-26T00:56:57.044Z,0.00
2018-03-26T00:57:57.034Z,0.00
2018-03-26T00:58:57.104Z,0.00
2018-03-26T00:59:57.061Z,0.00
2018-03-26T01:00:57.113Z,0.00
2018-03-26T01:01:57.108Z,0.00
2018-03-26T01:02:57.121Z,0.00
2018-03-26T01:03:57.195Z,0.00
2018-03-26T01:04:57.130Z,0.00
2018-03-26T01:05:57.167Z,0.00
2018-03-26T01:06:57.180Z,0.00
2018-03-26T01:07:57.210Z,0.00
2018-03-26T01:08:57.196Z,0.00
2018-03-26T01:09:57.249Z,0.00
2018-03-26T01:10:57.257Z,0.00
2018-03-26T01:11:57.237Z,0.00
2018-03-26T01:12:57.257Z,0.00
2018-03-26T01:13:57.271Z,0.00
2018-03-26T01:14:57.291Z,0.00
2018-03-26T01:15:57.290Z,0.00
2018-03-26T01:16:57.314Z,0.00
2018-03-26T01:17:57.327Z,0.00
2018-03-26T01:18:57.370Z,0.00
2018-03-26T01:19:57.353Z,0.00
2018-03-26T01:20:57.365Z,0.00
2018-03-26T01:21:57.426Z,0.00
2018-03-26T01:22:57.396Z,0.00
2018-03-26T01:23:57.423Z,0.00
2018-03-26T01:24:57.454Z,0.00
2018-03-26T01:25:57.470Z,0.00
2018-03-26T01:26:57.472Z,0.00
2018-03-26T01:27:57.478Z,0.00
2018-03-26T01:28:57.517Z,0.00
2018-03-26T01:29:57.503Z,0.00
2018-03-26T01:30:57.532Z,0.00
2018-03-26T01:31:57.532Z,0.00
2018-03-26T01:32:57.552Z,0.00
2018-03-26T01:33:57.578Z,0.00
2018-03-26T01:34:57.599Z,0.00
2018-03-26T01:35:57.628Z,0.00
2018-03-26T01:36:57.609Z,0.00
2018-03-26T01:37:57.654Z,0.00
2018-03-26T01:38:57.627Z,0.00
2018-03-26T01:39:57.652Z,0.00
2018-03-26T01:40:57.693Z,0.00
2018-03-26T01:41:57.725Z,0.00
2018-03-26T01:42:57.688Z,0.00
2018-03-26T01:43:57.723Z,0.00
2018-03-26T01:44:57.734Z,0.00
2018-03-26T01:45:57.751Z,0.00
2018-03-26T01:46:57.755Z,0.00
2018-03-26T01:47:57.774Z,0.00
2018-03-26T01:48:57.780Z,0.00
2018-03-26T01:49:57.805Z,0.00
2018-03-26T01:50:57.839Z,0.00
2018-03-26T01:51:57.818Z,0.00
2018-03-26T01:52:57.868Z,0.00
2018-03-26T01:53:57.852Z,0.00
2018-03-26T01:54:57.871Z,0.00
2018-03-26T01:55:57.884Z,0.00
2018-03-26T01:56:57.910Z,0.00
2018-03-26T01:57:57.920Z,0.00
2018-03-26T01:58:58.079Z,0.00
2018-03-26T01:59:57.953Z,0.00
2018-03-26T02:00:57.963Z,0.00
2018-03-26T02:01:57.968Z,0.00
2018-03-26T02:02:58.004Z,0.00
2018-03-26T02:03:58.003Z,0.00
2018-03-26T02:04:58.040Z,0.00
2018-03-26T02:05:58.043Z,0.00
2018-03-26T02:06:58.047Z,0.00
2018-03-26T02:07:58.062Z,0.00
2018-03-26T02:08:58.095Z,0.00
2018-03-26T02:09:58.091Z,0.00
2018-03-26T02:10:58.136Z,0.00
2018-03-26T02:11:58.126Z,0.00
2018-03-26T02:12:58.140Z,0.00
2018-03-26T02:13:58.152Z,0.00
2018-03-26T02:14:58.207Z,0.00
2018-03-26T02:15:58.179Z,0.00
2018-03-26T02:16:58.196Z,0.00
2018-03-26T02:17:58.229Z,0.00
2018-03-26T02:18:58.227Z,0.00
2018-03-26T02:19:58.236Z,0.00
2018-03-26T02:20:58.276Z,0.00
2018-03-26T02:21:58.285Z,0.00
2018-03-26T02:22:58.380Z,0.00
2018-03-26T02:23:58.315Z,0.00
2018-03-26T02:24:58.314Z,0.00
2018-03-26T02:25:58.350Z,0.00
2018-03-26T02:26:58.381Z,0.00
2018-03-26T02:27:58.358Z,0.00
2018-03-26T02:28:58.365Z,0.00
2018-03-26T02:29:58.396Z,0.00
2018-03-26T02:30:58.403Z,0.00
2018-03-26T02:31:58.415Z,0.00
2018-03-26T02:32:58.434Z,0.00
2018-03-26T02:33:58.445Z,0.00
2018-03-26T02:34:58.465Z,0.00
2018-03-26T02:35:58.481Z,0.00
2018-03-26T02:36:58.488Z,0.00
2018-03-26T02:37:58.514Z,0.00
2018-03-26T02:38:58.526Z,0.00
2018-03-26T02:39:58.527Z,0.00
2018-03-26T02:40:58.570Z,0.00
2018-03-26T02:41:58.586Z,0.00
2018-03-26T02:42:58.579Z,0.00
2018-03-26T02:43:58.607Z,0.00
2018-03-26T02:44:58.613Z,0.00
2018-03-26T02:45:58.630Z,0.00
2018-03-26T02:46:58.643Z,0.00
2018-03-26T02:47:58.663Z,0.00
2018-03-26T02:48:58.679Z,0.00
2018-03-26T02:49:58.711Z,0.00
2018-03-26T02:50:58.716Z,0.00
2018-03-26T02:51:58.735Z,0.00
2018-03-26T02:52:58.748Z,0.00
2018-03-26T02:53:58.737Z,0.00
2018-03-26T02:54:58.756Z,0.00
2018-03-26T02:55:58.766Z,0.00
2018-03-26T02:56:58.793Z,0.00
2018-03-26T02:57:58.805Z,0.00
2018-03-26T02:58:58.852Z,0.00
2018-03-26T02:59:58.845Z,0.00
2018-03-26T03:00:58.861Z,0.00
2018-03-26T03:01:58.883Z,0.00
2018-03-26T03:02:58.873Z,0.00
2018-03-26T03:03:58.903Z,0.00
2018-03-26T03:04:58.911Z,0.00
2018-03-26T03:05:58.915Z,0.00
2018-03-26T03:06:58.951Z,0.00
2018-03-26T03:07:58.981Z,0.00
2018-03-26T03:08:58.965Z,0.00
2018-03-26T03:09:58.977Z,0.00
2018-03-26T03:10:58.989Z,0.00
2018-03-26T03:11:59.021Z,0.00
2018-03-26T03:12:59.053Z,0.00
2018-03-26T03:13:59.054Z,0.00
2018-03-26T03:14:59.049Z,0.00
2018-03-26T03:15:59.071Z,0.00
2018-03-26T03:16:59.098Z,0.00
2018-03-26T03:17:59.101Z,0.00
2018-03-26T03:18:59.122Z,0.00
2018-03-26T03:19:59.151Z,0.00
2018-03-26T03:20:59.153Z,0.00
2018-03-26T03:21:59.178Z,0.00
2018-03-26T03:22:59.199Z,0.00
2018-03-26T03:23:59.185Z,0.00
2018-03-26T03:24:59.213Z,0.00
2018-03-26T03:25:59.204Z,0.00
2018-03-26T03:26:59.242Z,0.00
2018-03-26T03:27:59.244Z,0.00
2018-03-26T03:28:59.286Z,0.00
2018-03-26T03:29:59.287Z,0.00
2018-03-26T03:30:59.349Z,0.00
2018-03-26T03:31:59.300Z,0.00
2018-03-26T03:32:59.312Z,0.00
2018-03-26T03:33:59.350Z,0.00
2018-03-26T03:34:59.345Z,0.00
2018-03-26T03:35:59.369Z,0.00
2018-03-26T03:36:59.373Z,0.00
2018-03-26T03:37:59.384Z,0.00
2018-03-26T03:38:59.405Z,0.00
2018-03-26T03:39:59.420Z,0.00
2018-03-26T03:40:59.428Z,0.00
2018-03-26T03:41:59.451Z,0.00
2018-03-26T03:42:59.460Z,0.00
2018-03-26T03:43:59.504Z,0.00
2018-03-26T03:44:59.489Z,0.00
2018-03-26T03:45:59.523Z,0.00
2018-03-26T03:46:59.532Z,0.00
2018-03-26T03:47:59.535Z,0.00
2018-03-26T03:48:59.620Z,0.00
2018-03-26T03:49:59.583Z,0.00
2018-03-26T03:50:59.615Z,0.00
2018-03-26T03:51:59.597Z,0.00
2018-03-26T03:52:59.625Z,0.00
2018-03-26T03:53:59.620Z,0.00
2018-03-26T03:54:59.694Z,0.00
2018-03-26T03:55:59.655Z,0.00
2018-03-26T03:56:59.695Z,0.00
2018-03-26T03:57:59.694Z,0.00
2018-03-26T03:58:59.751Z,0.00
2018-03-26T03:59:59.716Z,0.00
2018-03-26T04:00:59.731Z,0.00
2018-03-26T04:01:59.757Z,0.00
2018-03-26T04:02:59.764Z,0.00
2018-03-26T04:03:59.839Z,0.00
2018-03-26T04:04:59.806Z,0.00
2018-03-26T04:05:59.805Z,0.00
2018-03-26T04:06:59.824Z,0.00
2018-03-26T04:07:59.831Z,0.00
2018-03-26T04:08:59.849Z,0.00
2018-03-26T04:09:59.863Z,0.00
2018-03-26T04:10:59.886Z,0.00
2018-03-26T04:11:59.909Z,0.00
2018-03-26T04:12:59.912Z,0.00
2018-03-26T04:13:59.920Z,0.00
2018-03-26T04:14:59.938Z,0.00
2018-03-26T04:15:59.975Z,0.00
2018-03-26T04:16:59.967Z,0.00
2018-03-26T04:17:59.994Z,0.00
2018-03-26T04:18:59.989Z,0.00
2018-03-26T04:20:00.025Z,0.00
2018-03-26T04:21:00.035Z,0.00
2018-03-26T04:22:00.046Z,0.00
2018-03-26T04:23:00.061Z,0.00
2018-03-26T04:24:00.078Z,0.00
2018-03-26T04:25:00.086Z,0.00
2018-03-26T04:26:00.098Z,0.00
2018-03-26T04:27:00.155Z,0.00
2018-03-26T04:28:00.127Z,0.00
2018-03-26T04:29:00.139Z,0.00
2018-03-26T04:30:00.171Z,0.00
2018-03-26T04:31:00.190Z,0.00
2018-03-26T04:32:00.205Z,0.00
2018-03-26T04:33:00.200Z,0.00
2018-03-26T04:34:00.221Z,0.00
2018-03-26T04:35:00.229Z,0.00
2018-03-26T04:36:00.242Z,0.00
2018-03-26T04:37:00.282Z,0.00
2018-03-26T04:38:00.273Z,0.00
2018-03-26T04:39:00.314Z,0.00
2018-03-26T04:40:00.365Z,0.00
2018-03-26T04:41:00.328Z,0.00
2018-03-26T04:42:00.328Z,0.00
2018-03-26T04:43:00.345Z,0.00
2018-03-26T04:44:00.397Z,4.00
2018-03-26T04:45:00.379Z,4.00
2018-03-26T04:46:00.391Z,4.00
2018-03-26T04:47:00.423Z,0.00
2018-03-26T04:48:00.432Z,0.00
2018-03-26T04:49:00.443Z,4.00
2018-03-26T04:50:00.482Z,4.00
2018-03-26T04:51:00.490Z,4.00
2018-03-26T04:52:00.505Z,4.00
2018-03-26T04:53:00.564Z,4.00
2018-03-26T04:54:00.527Z,4.00
2018-03-26T04:55:00.539Z,4.00
2018-03-26T04:56:00.570Z,8.00
2018-03-26T04:57:00.566Z,8.00
2018-03-26T04:58:00.571Z,12.00
2018-03-26T04:59:00.594Z,12.00
2018-03-26T05:00:00.611Z,12.00
2018-03-26T05:01:00.618Z,12.00
2018-03-26T05:02:00.650Z,16.00
2018-03-26T05:03:00.653Z,16.00
2018-03-26T05:04:00.680Z,20.00
2018-03-26T05:05:00.677Z,24.00
2018-03-26T05:06:00.728Z,28.00
2018-03-26T05:07:00.717Z,32.00
2018-03-26T05:08:00.755Z,36.00
2018-03-26T05:09:00.756Z,36.00
2018-03-26T05:10:00.832Z,40.00
2018-03-26T05:11:00.767Z,44.00
2018-03-26T05:12:00.791Z,52.00
2018-03-26T05:13:00.807Z,56.00
2018-03-26T05:14:00.823Z,60.00
2018-03-26T05:15:00.820Z,68.00
2018-03-26T05:16:00.848Z,76.00
2018-03-26T05:17:00.860Z,84.00
2018-03-26T05:18:00.913Z,92.00
2018-03-26T05:19:00.897Z,100.00
2018-03-26T05:20:00.929Z,112.00
2018-03-26T05:21:00.930Z,124.00
2018-03-26T05:22:00.944Z,136.00
2018-03-26T05:23:00.956Z,148.00
2018-03-26T05:24:00.976Z,164.00
2018-03-26T05:25:01.029Z,176.00
2018-03-26T05:26:00.989Z,192.00
2018-03-26T05:27:01.012Z,212.00
2018-03-26T05:28:01.047Z,236.00
2018-03-26T05:29:01.038Z,260.00
2018-03-26T05:30:01.060Z,280.00
2018-03-26T05:31:01.080Z,300.00
2018-03-26T05:32:01.080Z,320.00
2018-03-26T05:33:01.103Z,344.00
2018-03-26T05:34:01.143Z,368.00
2018-03-26T05:35:01.132Z,396.00
2018-03-26T05:36:01.170Z,420.00
2018-03-26T05:37:01.168Z,444.00
2018-03-26T05:38:01.207Z,452.00
2018-03-26T05:39:01.209Z,472.00
2018-03-26T05:40:01.236Z,492.00
2018-03-26T05:41:01.239Z,536.00
2018-03-26T05:42:01.226Z,584.00
2018-03-26T05:43:01.245Z,636.00
2018-03-26T05:44:01.275Z,676.00
2018-03-26T05:45:01.294Z,716.00
2018-03-26T05:46:01.299Z,748.00
2018-03-26T05:47:01.346Z,776.00
2018-03-26T05:48:01.325Z,804.00
2018-03-26T05:49:01.332Z,836.00
2018-03-26T05:50:01.351Z,860.00
2018-03-26T05:51:01.357Z,892.00
2018-03-26T05:52:01.385Z,928.00
2018-03-26T05:53:01.449Z,976.00
2018-03-26T05:54:01.407Z,1020.00
2018-03-26T05:55:01.444Z,1064.00
2018-03-26T05:56:01.451Z,1112.00
2018-03-26T05:57:01.459Z,1148.00
2018-03-26T05:58:01.466Z,1184.00
2018-03-26T05:59:01.482Z,1224.00
2018-03-26T06:00:01.498Z,1280.00
2018-03-26T06:01:01.516Z,1348.00
2018-03-26T06:02:01.528Z,1432.00
2018-03-26T06:03:01.541Z,1516.00
2018-03-26T06:04:01.571Z,1628.00
2018-03-26T06:05:01.578Z,1752.00
2018-03-26T06:06:01.590Z,1880.00
2018-03-26T06:07:01.623Z,2028.00
2018-03-26T06:08:01.682Z,2184.00
2018-03-26T06:09:01.630Z,2348.00
2018-03-26T06:10:01.641Z,2500.00
2018-03-26T06:11:01.661Z,2652.00
2018-03-26T06:12:01.682Z,2820.00
2018-03-26T06:13:01.686Z,2988.00
2018-03-26T06:14:01.699Z,3204.00
2018-03-26T06:15:01.726Z,3432.00
2018-03-26T06:16:01.734Z,3620.00
2018-03-26T06:17:01.759Z,3756.00
2018-03-26T06:18:01.775Z,3860.00
2018-03-26T06:19:01.779Z,3980.00
2018-03-26T06:20:01.800Z,4132.00
2018-03-26T06:21:01.807Z,4284.00
2018-03-26T06:22:01.820Z,4440.00
2018-03-26T06:23:01.893Z,4624.00
2018-03-26T06:24:01.856Z,4880.00
2018-03-26T06:25:01.882Z,5208.00
2018-03-26T06:26:01.886Z,5564.00
2018-03-26T06:27:01.913Z,5872.00
2018-03-26T06:28:01.917Z,6100.00
2018-03-26T06:29:01.983Z,6272.00
2018-03-26T06:30:01.979Z,6412.00
2018-03-26T06:31:02.059Z,6500.00
2018-03-26T06:32:01.979Z,6524.00
2018-03-26T06:33:02.006Z,6516.00
2018-03-26T06:34:02.034Z,6496.00
2018-03-26T06:35:02.045Z,6492.00
2018-03-26T06:36:02.041Z,6464.00
2018-03-26T06:37:02.049Z,6392.00
2018-03-26T06:38:02.097Z,6324.00
2018-03-26T06:39:02.088Z,6268.00
2018-03-26T06:40:02.125Z,6244.00
2018-03-26T06:41:02.121Z,6392.00
2018-03-26T06:42:02.141Z,6576.00
2018-03-26T06:43:02.177Z,6700.00
2018-03-26T06:44:02.184Z,6956.00
2018-03-26T06:45:02.176Z,6984.00
2018-03-26T06:46:02.203Z,7176.00
2018-03-26T06:47:02.245Z,7380.00
2018-03-26T06:48:02.270Z,7472.00
2018-03-26T06:49:02.241Z,7500.00
2018-03-26T06:50:02.251Z,7568.00
2018-03-26T06:51:02.281Z,7696.00
2018-03-26T06:52:02.282Z,7848.00
2018-03-26T06:53:02.332Z,7984.00
2018-03-26T06:54:02.332Z,8100.00
2018-03-26T06:55:02.349Z,8168.00
2018-03-26T06:56:02.352Z,8176.00
2018-03-26T06:57:02.367Z,8116.00
2018-03-26T06:58:02.414Z,7808.00
2018-03-26T06:59:02.401Z,7540.00
2018-03-26T07:00:02.428Z,7232.00
2018-03-26T07:01:02.434Z,6768.00
2018-03-26T07:02:02.458Z,6256.00
2018-03-26T07:03:02.467Z,6012.00
2018-03-26T07:04:02.476Z,5900.00
2018-03-26T07:05:02.491Z,5896.00
2018-03-26T07:06:02.526Z,5868.00
2018-03-26T07:07:02.549Z,5784.00
2018-03-26T07:08:02.549Z,5652.00
2018-03-26T07:09:02.558Z,5544.00
2018-03-26T07:10:02.588Z,5484.00
2018-03-26T07:11:02.601Z,5488.00
2018-03-26T07:12:02.607Z,5492.00
2018-03-26T07:13:02.634Z,5508.00
2018-03-26T07:14:02.634Z,5576.00
2018-03-26T07:15:02.696Z,5768.00
2018-03-26T07:16:02.679Z,6024.00
2018-03-26T07:17:02.705Z,6276.00
2018-03-26T07:18:02.723Z,6544.00
2018-03-26T07:19:02.724Z,6808.00
2018-03-26T07:20:02.742Z,7076.00
2018-03-26T07:21:02.778Z,7388.00
2018-03-26T07:22:02.775Z,7816.00
2018-03-26T07:23:02.803Z,8312.00
2018-03-26T07:24:02.803Z,8808.00
2018-03-26T07:25:02.847Z,9344.00
2018-03-26T07:26:02.836Z,9960.00
2018-03-26T07:27:02.859Z,10768.00
2018-03-26T07:28:02.871Z,11652.00
2018-03-26T07:29:02.903Z,12552.00
2018-03-26T07:30:02.926Z,13244.00
2018-03-26T07:31:02.935Z,13960.00
2018-03-26T07:32:02.937Z,14664.00
2018-03-26T07:33:02.960Z,15432.00
2018-03-26T07:34:03.001Z,16896.00
2018-03-26T07:35:03.003Z,21344.00
2018-03-26T07:36:03.006Z,14924.00
2018-03-26T07:37:03.017Z,13540.00
2018-03-26T07:38:03.035Z,12532.00
2018-03-26T07:39:03.053Z,12136.00
2018-03-26T07:40:03.064Z,12344.00
2018-03-26T07:41:03.108Z,12892.00
2018-03-26T07:42:03.141Z,13508.00
2018-03-26T07:43:03.141Z,13460.00
2018-03-26T07:44:03.158Z,12292.00
2018-03-26T07:45:03.206Z,11532.00
2018-03-26T07:46:03.176Z,11424.00
2018-03-26T07:47:03.195Z,11668.00
2018-03-26T07:48:03.219Z,11596.00
2018-03-26T07:49:03.234Z,10868.00
2018-03-26T07:50:03.267Z,10396.00
2018-03-26T07:51:03.295Z,10388.00
2018-03-26T07:52:03.280Z,9824.00
2018-03-26T07:53:03.307Z,8796.00
2018-03-26T07:54:03.327Z,7620.00
2018-03-26T07:55:03.330Z,6392.00
2018-03-26T07:56:03.353Z,5364.00
2018-03-26T07:57:03.382Z,4712.00
2018-03-26T07:58:03.387Z,4536.00
2018-03-26T07:59:03.391Z,4708.00
2018-03-26T08:00:03.426Z,4952.00
2018-03-26T08:01:03.438Z,5136.00
2018-03-26T08:02:03.475Z,5208.00
2018-03-26T08:03:03.472Z,5188.00
2018-03-26T08:04:03.502Z,5184.00
2018-03-26T08:05:03.526Z,5144.00
2018-03-26T08:06:03.527Z,5148.00
2018-03-26T08:07:03.540Z,5240.00
2018-03-26T08:08:03.555Z,5416.00
2018-03-26T08:09:03.574Z,5652.00
2018-03-26T08:10:03.602Z,5852.00
2018-03-26T08:11:03.637Z,6048.00
2018-03-26T08:12:03.660Z,6176.00
2018-03-26T08:13:03.663Z,6212.00
2018-03-26T08:14:03.673Z,6264.00
2018-03-26T08:15:03.673Z,6412.00
2018-03-26T08:16:03.700Z,6624.00
2018-03-26T08:17:03.716Z,6916.00
2018-03-26T08:18:03.727Z,7436.00
2018-03-26T08:19:03.742Z,7532.00
2018-03-26T08:20:03.772Z,7632.00
2018-03-26T08:21:03.762Z,7176.00
2018-03-26T08:22:03.789Z,6880.00
2018-03-26T08:23:03.815Z,7008.00
2018-03-26T08:24:03.831Z,7708.00
2018-03-26T08:25:03.860Z,8620.00
2018-03-26T08:26:03.849Z,9200.00
2018-03-26T08:27:03.872Z,8504.00
2018-03-26T08:28:03.883Z,8232.00
2018-03-26T08:29:03.917Z,8816.00
2018-03-26T08:30:03.938Z,9868.00
2018-03-26T08:31:03.984Z,11020.00
2018-03-26T08:32:03.958Z,11300.00
2018-03-26T08:33:03.988Z,12092.00
2018-03-26T08:34:03.985Z,13356.00
2018-03-26T08:35:04.006Z,15144.00
2018-03-26T08:36:04.038Z,16496.00
2018-03-26T08:37:04.041Z,16176.00
2018-03-26T08:38:04.075Z,16248.00
2018-03-26T08:39:04.074Z,15272.00
2018-03-26T08:40:04.098Z,14100.00
2018-03-26T08:41:04.118Z,13580.00
2018-03-26T08:42:04.123Z,13692.00
2018-03-26T08:43:04.145Z,13672.00
2018-03-26T08:44:04.172Z,13824.00
2018-03-26T08:45:04.167Z,14512.00
2018-03-26T08:46:04.198Z,15648.00
2018-03-26T08:47:04.217Z,17728.00
2018-03-26T08:48:04.237Z,18656.00
2018-03-26T08:49:04.242Z,19616.00
2018-03-26T08:50:04.335Z,20096.00
2018-03-26T08:51:04.277Z,19872.00
2018-03-26T08:52:04.308Z,19744.00
2018-03-26T08:53:04.309Z,19680.00
2018-03-26T08:54:04.324Z,19552.00
2018-03-26T08:55:04.356Z,18848.00
2018-03-26T08:56:04.372Z,17952.00
2018-03-26T08:57:04.414Z,18432.00
2018-03-26T08:58:04.406Z,19488.00
2018-03-26T08:59:04.426Z,18400.00
2018-03-26T09:00:04.436Z,16568.00
2018-03-26T09:01:04.459Z,14368.00
2018-03-26T09:02:04.472Z,12612.00
2018-03-26T09:03:04.494Z,11840.00
2018-03-26T09:04:04.506Z,11516.00
2018-03-26T09:05:04.525Z,12236.00
2018-03-26T09:06:04.616Z,11564.00
2018-03-26T09:07:04.588Z,12732.00
2018-03-26T09:08:04.587Z,12632.00
2018-03-26T09:09:04.600Z,13696.00
2018-03-26T09:10:04.618Z,14500.00
2018-03-26T09:11:04.667Z,14528.00
2018-03-26T09:12:04.683Z,14240.00
2018-03-26T09:13:04.678Z,14036.00
2018-03-26T09:14:04.696Z,13692.00
2018-03-26T09:15:04.708Z,13588.00
2018-03-26T09:16:04.747Z,13648.00
2018-03-26T09:17:04.755Z,13632.00
2018-03-26T09:18:04.767Z,13716.00
2018-03-26T09:19:04.784Z,13484.00
2018-03-26T09:20:04.831Z,13496.00
2018-03-26T09:21:04.822Z,13420.00
2018-03-26T09:22:04.855Z,12736.00
2018-03-26T09:23:04.882Z,12276.00
2018-03-26T09:24:04.913Z,12788.00
2018-03-26T09:25:04.898Z,14420.00
2018-03-26T09:26:04.923Z,16092.00
2018-03-26T09:27:04.939Z,16420.00
2018-03-26T09:28:04.979Z,16264.00
2018-03-26T09:29:05.002Z,16044.00
2018-03-26T09:30:05.023Z,16232.00
2018-03-26T09:31:05.044Z,16504.00
2018-03-26T09:32:05.076Z,16524.00
2018-03-26T09:33:05.078Z,16952.00
2018-03-26T09:34:05.134Z,15932.00
2018-03-26T09:35:05.103Z,15240.00
2018-03-26T09:36:05.186Z,14896.00
2018-03-26T09:37:05.119Z,14148.00
2018-03-26T09:38:05.143Z,13900.00
2018-03-26T09:39:05.164Z,13600.00
2018-03-26T09:40:05.208Z,13280.00
2018-03-26T09:41:05.208Z,13364.00
2018-03-26T09:42:05.211Z,13292.00
2018-03-26T09:43:05.270Z,13064.00
2018-03-26T09:44:05.258Z,13036.00
2018-03-26T09:45:05.313Z,13324.00
2018-03-26T09:46:05.295Z,13808.00
2018-03-26T09:47:05.370Z,14480.00
2018-03-26T09:48:05.337Z,14896.00
2018-03-26T09:49:05.332Z,14532.00
2018-03-26T09:50:05.380Z,14204.00
2018-03-26T09:51:05.412Z,13504.00
2018-03-26T09:52:05.400Z,12736.00
2018-03-26T09:53:05.419Z,12196.00
2018-03-26T09:54:05.438Z,11664.00
2018-03-26T09:55:05.440Z,11404.00
2018-03-26T09:56:05.475Z,11176.00
2018-03-26T09:57:05.503Z,10660.00
2018-03-26T09:58:05.505Z,10608.00
2018-03-26T09:59:05.522Z,10740.00
2018-03-26T10:00:05.596Z,11032.00
2018-03-26T10:01:05.604Z,11440.00
2018-03-26T10:02:05.587Z,12064.00
2018-03-26T10:03:05.594Z,13720.00
2018-03-26T10:04:05.616Z,13772.00
2018-03-26T10:05:05.660Z,14508.00
2018-03-26T10:06:05.667Z,15192.00
2018-03-26T10:07:05.688Z,15756.00
2018-03-26T10:08:05.714Z,16276.00
2018-03-26T10:09:05.749Z,16464.00
2018-03-26T10:10:05.715Z,16428.00
2018-03-26T10:11:05.759Z,15268.00
2018-03-26T10:12:05.749Z,13832.00
2018-03-26T10:13:05.800Z,12568.00
2018-03-26T10:14:05.859Z,11416.00
2018-03-26T10:15:05.814Z,9860.00
2018-03-26T10:16:05.892Z,8744.00
2018-03-26T10:17:05.846Z,8292.00
2018-03-26T10:18:05.881Z,7868.00
2018-03-26T10:19:05.888Z,7844.00
2018-03-26T10:20:05.949Z,8080.00
2018-03-26T10:21:05.932Z,9192.00
2018-03-26T10:22:05.956Z,10076.00
2018-03-26T10:23:05.957Z,11120.00
2018-03-26T10:24:05.981Z,11560.00
2018-03-26T10:25:06.005Z,11988.00
2018-03-26T10:26:06.017Z,12328.00
2018-03-26T10:27:06.041Z,12720.00
2018-03-26T10:28:06.049Z,13436.00
2018-03-26T10:29:06.075Z,14204.00
2018-03-26T10:30:06.106Z,14824.00
2018-03-26T10:31:06.109Z,15532.00
2018-03-26T10:32:06.124Z,15044.00
2018-03-26T10:33:06.181Z,16076.00
2018-03-26T10:34:06.162Z,17664.00
2018-03-26T10:35:06.198Z,16064.00
2018-03-26T10:36:06.198Z,15712.00
2018-03-26T10:37:06.262Z,15840.00
2018-03-26T10:38:06.238Z,14084.00
2018-03-26T10:39:06.301Z,12656.00
2018-03-26T10:40:06.275Z,11688.00
2018-03-26T10:41:06.324Z,11172.00
2018-03-26T10:42:06.338Z,11120.00
2018-03-26T10:43:06.335Z,10796.00
2018-03-26T10:44:06.390Z,11048.00
2018-03-26T10:45:06.372Z,11216.00
2018-03-26T10:46:06.417Z,11872.00
2018-03-26T10:47:06.434Z,12304.00
2018-03-26T10:48:06.427Z,11864.00
2018-03-26T10:49:06.454Z,12924.00
2018-03-26T10:50:06.501Z,13524.00
2018-03-26T10:51:06.496Z,13164.00
2018-03-26T10:52:06.496Z,14036.00
2018-03-26T10:53:06.572Z,14956.00
2018-03-26T10:54:06.533Z,16896.00
2018-03-26T10:55:06.558Z,17280.00
2018-03-26T10:56:06.574Z,16896.00
2018-03-26T10:57:06.600Z,17088.00
2018-03-26T10:58:06.619Z,17024.00
2018-03-26T10:59:06.637Z,17056.00
2018-03-26T11:00:06.662Z,16500.00
2018-03-26T11:01:06.675Z,16992.00
2018-03-26T11:02:06.682Z,16240.00
2018-03-26T11:03:06.704Z,15096.00
2018-03-26T11:04:06.738Z,15048.00
2018-03-26T11:05:06.747Z,14760.00
2018-03-26T11:06:06.774Z,13964.00
2018-03-26T11:07:06.795Z,13668.00
2018-03-26T11:08:06.807Z,13268.00
2018-03-26T11:09:06.823Z,13028.00
2018-03-26T11:10:06.842Z,13132.00
2018-03-26T11:11:06.910Z,12872.00
2018-03-26T11:12:06.902Z,11904.00
2018-03-26T11:13:06.895Z,10684.00
2018-03-26T11:14:06.926Z,10992.00
2018-03-26T11:15:06.947Z,10512.00
2018-03-26T11:16:06.979Z,10092.00
2018-03-26T11:17:06.976Z,9960.00
2018-03-26T11:18:06.994Z,10856.00
2018-03-26T11:19:07.002Z,10636.00
2018-03-26T11:20:07.037Z,10440.00
2018-03-26T11:21:07.045Z,9476.00
2018-03-26T11:22:07.078Z,9184.00
2018-03-26T11:23:07.119Z,9292.00
2018-03-26T11:24:07.104Z,9460.00
2018-03-26T11:25:07.142Z,9992.00
2018-03-26T11:26:07.159Z,10412.00
2018-03-26T11:27:07.156Z,10956.00
2018-03-26T11:28:07.189Z,11528.00
2018-03-26T11:29:07.205Z,12104.00
2018-03-26T11:30:07.237Z,12904.00
2018-03-26T11:31:07.241Z,13368.00
2018-03-26T11:32:07.275Z,13276.00
2018-03-26T11:33:07.293Z,13428.00
2018-03-26T11:34:07.309Z,13916.00
2018-03-26T11:35:07.344Z,14332.00
2018-03-26T11:36:07.339Z,14440.00
2018-03-26T11:37:07.416Z,14868.00
2018-03-26T11:38:07.395Z,15312.00
2018-03-26T11:39:07.399Z,15536.00
2018-03-26T11:40:07.409Z,15896.00
2018-03-26T11:41:07.435Z,16448.00
2018-03-26T11:42:07.459Z,17056.00
2018-03-26T11:43:07.464Z,17056.00
2018-03-26T11:44:07.497Z,17440.00
2018-03-26T11:45:07.501Z,17344.00
2018-03-26T11:46:07.531Z,16228.00
2018-03-26T11:47:07.538Z,16260.00
2018-03-26T11:48:07.597Z,15548.00
2018-03-26T11:49:07.631Z,15008.00
2018-03-26T11:50:07.602Z,14252.00
2018-03-26T11:51:07.634Z,13876.00
2018-03-26T11:52:07.641Z,13124.00
2018-03-26T11:53:07.734Z,12348.00
2018-03-26T11:54:07.685Z,11720.00
2018-03-26T11:55:07.695Z,10956.00
2018-03-26T11:56:07.714Z,10256.00
2018-03-26T11:57:07.746Z,9784.00
2018-03-26T11:58:07.758Z,10060.00
2018-03-26T11:59:07.822Z,9312.00
2018-03-26T12:00:07.794Z,9372.00
2018-03-26T12:01:07.843Z,9436.00
2018-03-26T12:02:07.876Z,9120.00
2018-03-26T12:03:07.859Z,10364.00
2018-03-26T12:04:07.887Z,10272.00
2018-03-26T12:05:07.903Z,9148.00
2018-03-26T12:06:07.922Z,10512.00
2018-03-26T12:07:07.923Z,10704.00
2018-03-26T12:08:07.944Z,10764.00
2018-03-26T12:09:07.976Z,10696.00
2018-03-26T12:10:07.987Z,10780.00
2018-03-26T12:11:07.996Z,11100.00
2018-03-26T12:12:08.021Z,11404.00
2018-03-26T12:13:08.089Z,10788.00
2018-03-26T12:14:08.078Z,10404.00
2018-03-26T12:15:08.153Z,10744.00
2018-03-26T12:16:08.088Z,12356.00
2018-03-26T12:17:08.156Z,11700.00
2018-03-26T12:18:08.136Z,12832.00
2018-03-26T12:19:08.142Z,12844.00
2018-03-26T12:20:08.166Z,12808.00
2018-03-26T12:21:08.207Z,12624.00
2018-03-26T12:22:08.221Z,12500.00
2018-03-26T12:23:08.215Z,11968.00
2018-03-26T12:24:08.262Z,11812.00
2018-03-26T12:25:08.268Z,13148.00
2018-03-26T12:26:08.275Z,13408.00
2018-03-26T12:27:08.299Z,13228.00
2018-03-26T12:28:08.398Z,12128.00